Detall de PIREP

Printer-friendly versionPDF version

[2012/03/08 16:56:00]
Flight IATA:CT1004
Pilot Number:037
Company ICAO:CAT
Aircraft Type:B752/E
PAX:110
Departing Airport: LFMN
Destination Airport: LEBL
Alternate Airport:LEPA
Online: VATSIM
Route:EPOLO UP132 DIVKO UN975 BISBA

Flight Level:F300
No Slew and time accel
No pause
Crash detect
Detect pilot in Cockpit between each 30 and 45 minutes
16:56 Zero fuel Weight: 165313 Lbs, Fuel Weight: 18335 Lbs
16:56 VATSIM:LFMN 081624Z 24005KT 9999 FEW028 14/07 Q1019 NOSIG
16:56 VATSIM:LEBL 081630Z 21006KT 170V230 9999 FEW025 14/06 Q1022 NOSIG
17:09 Parking Brakes off
17:17 Take-off
17:17 Take off Weight: 182583 Lbs
17:17 Wind: 241º @ 005 Knots Heading: 225º
17:17 POS N43º 39´ 35´´ E007º 12´ 54´´
17:17 Flaps:2 at 189 Knots
17:17 Gear Up: 193 Knots
17:17 Flaps:1 at 210 Knots
17:17 Flaps:0 at 212 Knots
17:26 TOC
17:26 Fuel Weight: 14314 Lb
17:32 Wind:354º@058 Knots Heading: 283º Ground Speed: 461 Knots Altitude 29990 ft
17:40 TOD
17:40 Fuel Weight: 12031 Lb
17:47 Wind:340º@078 Knots Heading: 231º Ground Speed: 425 Knots Altitude 21666 ft
18:02 Wind:004º@008 Knots Heading: 230º Ground Speed: 256 Knots Altitude 6794 ft
18:05 Flaps:1 at 214 Knots
18:06 Flaps:2 at 195 Knots
18:06 Gear Down: 193 Knots
18:06 Flaps:3 at 175 Knots
18:07 Flaps:4 at 155 Knots
18:08 Flaps:5 at 147 Knots
18:08 Flaps:6 at 141 Knots
18:10 TouchDown:Rate -177 ft/min Speed: 125 Knots
18:10 VATSIM:LEBL 081800Z 22004KT 190V250 9999 FEW025 13/07 Q1024 NOSIG
18:10 Land
18:10 Wind:209º@005 Knots
18:10 Heading: 243º
18:10 Flight Duration: 00:53
18:10 Landing Weight: 175270 Lbs
18:10 POS N41º 18´ 00´´ E002º 05´ 15´´
18:13 Parking brakes on
18:13 Block to Block Duration: 01:04
18:13 Final Fuel: 9642 Lbls
18:13 Spent Fuel: 8692 Lbls
18:13 Flight Length: 214 NM
18:13 TOD Land Length: 64 NM

Exportar CSV

Powered by Drupal - Modified by Danger4k